createdAt,value
2023-07-12T00:00:31.676Z,21.72
2023-07-12T00:01:33.481Z,21.66
2023-07-12T00:02:35.019Z,21.72
2023-07-12T00:03:36.785Z,21.68
2023-07-12T00:04:38.286Z,21.69
2023-07-12T00:05:40.211Z,21.67
2023-07-12T00:06:41.722Z,21.73
2023-07-12T00:07:46.375Z,21.74
2023-07-12T00:08:48.221Z,21.80
2023-07-12T00:09:49.651Z,21.81
2023-07-12T00:10:52.918Z,21.78
2023-07-12T00:11:54.355Z,21.75
2023-07-12T00:12:55.972Z,21.68
2023-07-12T00:13:57.414Z,21.62
2023-07-12T00:14:58.878Z,21.69
2023-07-12T00:16:00.322Z,21.76
2023-07-12T00:17:01.907Z,21.66
2023-07-12T00:18:06.129Z,21.55
2023-07-12T00:19:14.052Z,21.64
2023-07-12T00:20:42.060Z,21.65
2023-07-12T00:21:44.103Z,21.69
2023-07-12T00:22:46.792Z,21.65
2023-07-12T00:23:48.224Z,21.61
2023-07-12T00:24:49.820Z,21.68
2023-07-12T00:25:51.442Z,21.62
2023-07-12T00:26:52.870Z,21.64
2023-07-12T00:27:55.118Z,21.68
2023-07-12T00:28:58.746Z,21.65
2023-07-12T00:30:00.498Z,21.66
2023-07-12T00:31:01.992Z,21.62
2023-07-12T00:32:03.715Z,21.58
2023-07-12T00:33:05.214Z,21.64
2023-07-12T00:34:07.596Z,21.51
2023-07-12T00:35:17.047Z,21.50
2023-07-12T00:36:27.477Z,21.36
2023-07-12T00:37:28.919Z,21.28
2023-07-12T00:38:30.452Z,21.26
2023-07-12T00:39:34.170Z,21.22
2023-07-12T00:41:06.541Z,21.30
2023-07-12T00:42:17.225Z,21.25
2023-07-12T00:43:25.543Z,21.29
2023-07-12T00:44:47.081Z,21.30
2023-07-12T00:45:51.854Z,21.22
2023-07-12T00:46:57.575Z,21.27
2023-07-12T00:47:59.390Z,21.10
2023-07-12T00:49:01.341Z,21.17
2023-07-12T00:50:02.921Z,21.20
2023-07-12T00:51:28.626Z,21.11
2023-07-12T00:52:32.142Z,21.13
2023-07-12T00:53:34.122Z,21.08
2023-07-12T00:55:01.076Z,21.09
2023-07-12T00:56:11.302Z,21.14
2023-07-12T00:57:12.978Z,21.17
2023-07-12T00:58:14.560Z,21.12
2023-07-12T00:59:31.119Z,20.75
2023-07-12T01:00:32.591Z,20.75
2023-07-12T01:01:36.816Z,20.69
2023-07-12T01:02:41.444Z,20.73
2023-07-12T01:03:45.303Z,20.93
2023-07-12T01:04:49.380Z,20.67
2023-07-12T01:05:51.185Z,20.70
2023-07-12T01:06:53.239Z,20.58
2023-07-12T01:07:54.745Z,20.57
2023-07-12T01:09:00.576Z,20.37
2023-07-12T01:10:02.593Z,20.33
2023-07-12T01:11:04.630Z,20.47
2023-07-12T01:12:06.860Z,20.46
2023-07-12T01:13:09.074Z,20.48
2023-07-12T01:14:12.823Z,20.60
2023-07-12T01:15:14.324Z,20.36
2023-07-12T01:16:19.719Z,20.42
2023-07-12T01:17:24.641Z,20.46
2023-07-12T01:18:27.167Z,20.50
2023-07-12T01:19:29.723Z,20.54
2023-07-12T01:20:38.906Z,20.62
2023-07-12T01:21:51.646Z,20.70
2023-07-12T01:22:54.382Z,20.67
2023-07-12T01:23:55.842Z,20.77
2023-07-12T01:24:57.293Z,20.71
2023-07-12T01:26:24.299Z,20.73
2023-07-12T01:27:26.663Z,20.84
2023-07-12T01:28:28.315Z,20.82
2023-07-12T01:29:30.619Z,20.87
2023-07-12T01:30:32.891Z,20.86
2023-07-12T01:31:35.693Z,20.87
2023-07-12T01:32:38.449Z,20.77
2023-07-12T01:33:40.933Z,20.76
2023-07-12T01:34:42.556Z,20.80
2023-07-12T01:35:44.253Z,20.62
2023-07-12T01:36:46.564Z,20.62
2023-07-12T01:37:48.115Z,20.66
2023-07-12T01:38:51.247Z,20.52
2023-07-12T01:39:53.158Z,20.66
2023-07-12T01:40:57.735Z,20.70
2023-07-12T01:42:00.531Z,20.66
2023-07-12T01:43:05.460Z,20.62
2023-07-12T01:44:07.550Z,20.72
2023-07-12T01:45:09.445Z,20.70
2023-07-12T01:46:11.142Z,20.71
2023-07-12T01:47:12.959Z,20.84
2023-07-12T01:48:14.405Z,20.92
2023-07-12T01:49:15.996Z,20.91
2023-07-12T01:50:17.617Z,20.87
2023-07-12T01:51:20.719Z,20.84
2023-07-12T01:52:22.229Z,20.87
2023-07-12T01:53:23.714Z,20.82
2023-07-12T01:54:25.178Z,20.81
2023-07-12T01:55:26.636Z,20.85
2023-07-12T01:56:28.163Z,20.86
2023-07-12T01:57:29.631Z,20.60
2023-07-12T01:58:31.497Z,20.49
2023-07-12T01:59:32.931Z,20.53
2023-07-12T02:00:34.367Z,20.57
2023-07-12T02:01:35.860Z,20.72
2023-07-12T02:02:37.441Z,20.79
2023-07-12T02:03:39.218Z,20.83
2023-07-12T02:04:40.840Z,20.96
2023-07-12T02:05:43.523Z,20.99
2023-07-12T02:06:45.016Z,20.99
2023-07-12T02:07:46.477Z,21.12
2023-07-12T02:08:47.984Z,21.18
2023-07-12T02:10:10.082Z,21.08
2023-07-12T02:11:11.903Z,20.89
2023-07-12T02:12:13.559Z,20.71
2023-07-12T02:13:15.575Z,20.69
2023-07-12T02:14:17.541Z,20.64
2023-07-12T02:15:20.760Z,20.74
2023-07-12T02:16:22.402Z,20.62
2023-07-12T02:17:23.938Z,20.62
2023-07-12T02:18:25.572Z,20.66
2023-07-12T02:19:27.123Z,20.56
2023-07-12T02:20:28.728Z,20.65
2023-07-12T02:21:30.694Z,20.70
2023-07-12T02:22:34.436Z,20.67
2023-07-12T02:23:35.936Z,20.60
2023-07-12T02:24:37.410Z,20.63
2023-07-12T02:25:40.042Z,20.68
2023-07-12T02:26:42.732Z,20.63
2023-07-12T02:27:47.742Z,20.74
2023-07-12T02:28:49.259Z,20.87
2023-07-12T02:29:51.072Z,20.90
2023-07-12T02:30:52.522Z,20.89
2023-07-12T02:31:56.379Z,20.87
2023-07-12T02:32:58.645Z,20.83
2023-07-12T02:34:00.515Z,20.87
2023-07-12T02:35:02.061Z,20.81
2023-07-12T02:36:03.623Z,20.72
2023-07-12T02:37:05.228Z,20.73
2023-07-12T02:38:07.063Z,20.88
2023-07-12T02:39:08.505Z,20.84
2023-07-12T02:40:11.576Z,20.73
2023-07-12T02:41:13.113Z,20.78
2023-07-12T02:42:14.636Z,20.75
2023-07-12T02:43:16.087Z,20.75
2023-07-12T02:44:18.086Z,20.70
2023-07-12T02:45:19.576Z,20.73
2023-07-12T02:46:21.678Z,20.85
2023-07-12T02:47:23.706Z,20.83
2023-07-12T02:48:25.217Z,20.80
2023-07-12T02:49:26.964Z,20.81
2023-07-12T02:50:28.860Z,20.80
2023-07-12T02:51:30.347Z,20.78
2023-07-12T02:52:31.868Z,20.63
2023-07-12T02:54:37.192Z,20.77
2023-07-12T02:55:39.139Z,20.78
2023-07-12T02:56:40.606Z,20.50
2023-07-12T02:57:42.405Z,20.49
2023-07-12T02:58:43.868Z,20.62
2023-07-12T02:59:45.362Z,20.73
2023-07-12T03:00:48.209Z,20.70
2023-07-12T03:01:50.414Z,20.76
2023-07-12T03:02:51.996Z,20.79
2023-07-12T03:03:54.274Z,20.74
2023-07-12T03:04:55.783Z,20.71
2023-07-12T03:06:02.232Z,20.70
2023-07-12T03:07:04.634Z,20.80
2023-07-12T03:08:06.838Z,20.74
2023-07-12T03:09:08.313Z,20.69
2023-07-12T03:10:10.021Z,20.59
2023-07-12T03:11:13.110Z,20.54
2023-07-12T03:12:14.838Z,20.51
2023-07-12T03:13:16.296Z,20.48
2023-07-12T03:14:19.252Z,20.65
2023-07-12T03:15:22.158Z,20.70
2023-07-12T03:16:24.233Z,20.68
2023-07-12T03:17:26.010Z,20.64
2023-07-12T03:18:28.539Z,20.63
2023-07-12T03:19:30.109Z,20.69
2023-07-12T03:20:34.310Z,20.73
2023-07-12T03:21:35.843Z,20.56
2023-07-12T03:22:37.309Z,20.65
2023-07-12T03:23:38.755Z,20.73
2023-07-12T03:24:40.259Z,20.71
2023-07-12T03:25:46.739Z,20.64
2023-07-12T03:26:48.201Z,20.54
2023-07-12T03:27:51.732Z,20.51
2023-07-12T03:28:53.657Z,20.55
2023-07-12T03:29:55.088Z,20.53
2023-07-12T03:31:04.377Z,20.47
2023-07-12T03:32:06.725Z,20.26
2023-07-12T03:33:08.359Z,20.29
2023-07-12T03:34:10.358Z,20.20
2023-07-12T03:35:11.805Z,20.33
2023-07-12T03:36:14.459Z,20.46
2023-07-12T03:37:16.357Z,20.42
2023-07-12T03:38:18.494Z,20.38
2023-07-12T03:39:19.950Z,20.24
2023-07-12T03:40:21.437Z,20.11
2023-07-12T03:41:23.153Z,20.12
2023-07-12T03:42:24.613Z,20.18
2023-07-12T03:43:26.886Z,20.16
2023-07-12T03:44:28.374Z,20.26
2023-07-12T03:45:29.852Z,20.09
2023-07-12T03:46:31.302Z,20.07
2023-07-12T03:47:32.962Z,20.18
2023-07-12T03:48:35.150Z,20.20
2023-07-12T03:49:37.182Z,20.19
2023-07-12T03:50:40.198Z,20.30
2023-07-12T03:51:41.977Z,20.33
2023-07-12T03:52:43.863Z,20.32
2023-07-12T03:53:45.896Z,20.34
2023-07-12T03:54:47.339Z,20.29
2023-07-12T03:55:49.544Z,20.27
2023-07-12T03:56:52.612Z,20.24
2023-07-12T03:57:55.936Z,20.26
2023-07-12T03:58:57.437Z,20.28
2023-07-12T03:59:58.968Z,20.36
2023-07-12T04:01:07.000Z,20.48
2023-07-12T04:02:08.471Z,20.49
2023-07-12T04:03:12.538Z,20.68
2023-07-12T04:04:14.099Z,20.68
2023-07-12T04:05:15.646Z,20.54
2023-07-12T04:06:17.121Z,20.60
2023-07-12T04:07:19.058Z,20.64
2023-07-12T04:08:21.490Z,20.64
2023-07-12T04:09:22.940Z,20.59
2023-07-12T04:10:24.444Z,20.51
2023-07-12T04:11:28.159Z,20.48
2023-07-12T04:12:29.594Z,20.46
2023-07-12T04:13:31.599Z,20.46
2023-07-12T04:14:33.033Z,20.49
2023-07-12T04:15:36.001Z,20.56
2023-07-12T04:16:38.010Z,20.64
2023-07-12T04:17:39.504Z,20.68
2023-07-12T04:18:41.333Z,20.69
2023-07-12T04:19:42.898Z,20.65
2023-07-12T04:20:44.913Z,20.56
2023-07-12T04:21:46.843Z,20.54
2023-07-12T04:22:52.213Z,20.59
2023-07-12T04:23:53.882Z,20.69
2023-07-12T04:24:55.520Z,20.77
2023-07-12T04:26:05.691Z,20.78
2023-07-12T04:27:07.167Z,20.69
2023-07-12T04:28:08.927Z,20.61
2023-07-12T04:29:10.376Z,20.65
2023-07-12T04:30:14.823Z,20.62
2023-07-12T04:31:18.605Z,20.68
2023-07-12T04:32:20.127Z,20.67
2023-07-12T04:33:22.069Z,20.64
2023-07-12T04:35:31.276Z,20.76
2023-07-12T04:36:33.257Z,20.83
2023-07-12T04:37:35.403Z,20.81
2023-07-12T04:38:37.569Z,20.67
2023-07-12T04:39:39.071Z,20.63
2023-07-12T04:40:40.516Z,20.58
2023-07-12T04:41:42.428Z,20.60
2023-07-12T04:42:44.556Z,20.64
2023-07-12T04:43:46.482Z,20.69
2023-07-12T04:44:47.951Z,20.73
2023-07-12T04:45:49.750Z,20.65
2023-07-12T04:46:51.211Z,20.61
2023-07-12T04:47:52.820Z,20.38
2023-07-12T04:48:55.926Z,20.40
2023-07-12T04:49:58.356Z,20.36
2023-07-12T04:51:01.755Z,20.61
2023-07-12T04:52:05.656Z,20.67
2023-07-12T04:53:07.122Z,20.52
2023-07-12T04:54:09.041Z,20.69
2023-07-12T04:55:27.478Z,20.51
2023-07-12T04:56:29.178Z,20.46
2023-07-12T04:57:31.260Z,20.33
2023-07-12T04:58:32.849Z,20.51
2023-07-12T04:59:35.535Z,20.50
2023-07-12T05:00:37.092Z,20.51
2023-07-12T05:01:38.652Z,20.59
2023-07-12T05:02:40.541Z,20.66
2023-07-12T05:03:42.490Z,20.67
2023-07-12T05:04:45.049Z,20.66
2023-07-12T05:05:47.067Z,20.66
2023-07-12T05:06:48.951Z,20.65
2023-07-12T05:07:50.452Z,20.68
2023-07-12T05:08:52.994Z,20.71
2023-07-12T05:09:54.413Z,20.80
2023-07-12T05:11:02.629Z,20.98
2023-07-12T05:12:05.029Z,21.02
2023-07-12T05:13:06.498Z,21.08
2023-07-12T05:14:08.001Z,21.13
2023-07-12T05:15:11.648Z,21.16
2023-07-12T05:16:14.620Z,21.07
2023-07-12T05:17:16.057Z,21.02
2023-07-12T05:18:17.558Z,20.95
2023-07-12T05:19:19.178Z,20.92
2023-07-12T05:20:21.110Z,21.00
2023-07-12T05:21:25.143Z,21.09
2023-07-12T05:22:26.809Z,20.97
2023-07-12T05:23:28.317Z,20.60
2023-07-12T05:24:30.579Z,20.87
2023-07-12T05:25:32.210Z,20.96
2023-07-12T05:26:34.634Z,21.00
2023-07-12T05:27:36.609Z,21.01
2023-07-12T05:28:38.197Z,20.99
2023-07-12T05:29:39.686Z,21.06
2023-07-12T05:30:41.422Z,21.20
2023-07-12T05:31:45.677Z,21.19
2023-07-12T05:32:47.894Z,21.26
2023-07-12T05:33:49.429Z,21.30
2023-07-12T05:34:50.887Z,21.32
2023-07-12T05:35:52.851Z,21.35
2023-07-12T05:36:54.359Z,21.32
2023-07-12T05:37:55.808Z,21.34
2023-07-12T05:38:59.215Z,21.11
2023-07-12T05:40:00.772Z,21.19
2023-07-12T05:41:02.966Z,21.27
2023-07-12T05:42:04.812Z,21.28
2023-07-12T05:43:06.321Z,21.29
2023-07-12T05:44:07.830Z,21.31
2023-07-12T05:45:15.732Z,21.43
2023-07-12T05:46:17.659Z,21.41
2023-07-12T05:47:19.235Z,21.45
2023-07-12T05:48:20.686Z,21.55
2023-07-12T05:49:22.146Z,21.60
2023-07-12T05:50:23.654Z,21.68
2023-07-12T05:51:25.120Z,21.73
2023-07-12T05:52:26.686Z,21.80
2023-07-12T05:53:28.231Z,21.88
2023-07-12T05:54:30.685Z,22.05
2023-07-12T05:55:32.626Z,22.21
2023-07-12T05:56:34.194Z,22.24
2023-07-12T05:57:35.966Z,22.28
2023-07-12T05:58:37.465Z,22.27
2023-07-12T05:59:38.962Z,22.46
2023-07-12T06:00:40.765Z,22.48
2023-07-12T06:01:42.418Z,22.43
2023-07-12T06:02:43.995Z,22.42
2023-07-12T06:03:45.530Z,22.40
2023-07-12T06:04:47.282Z,22.35
2023-07-12T06:05:48.730Z,22.32
2023-07-12T06:06:51.716Z,22.45
2023-07-12T06:07:53.397Z,22.50
2023-07-12T06:08:55.393Z,22.53
2023-07-12T06:09:56.839Z,22.56
2023-07-12T06:10:58.606Z,22.73
2023-07-12T06:12:00.126Z,22.69
2023-07-12T06:13:02.394Z,22.67
2023-07-12T06:14:04.359Z,22.79
2023-07-12T06:15:07.524Z,22.80
2023-07-12T06:16:09.073Z,22.74
2023-07-12T06:17:10.730Z,22.63
2023-07-12T06:18:12.359Z,22.67
2023-07-12T06:19:15.095Z,22.57
2023-07-12T06:20:16.712Z,22.65
2023-07-12T06:21:18.137Z,22.75
2023-07-12T06:22:19.595Z,22.78
2023-07-12T06:23:21.569Z,22.90
2023-07-12T06:24:23.296Z,22.96
2023-07-12T06:25:25.884Z,22.92
2023-07-12T06:26:28.578Z,23.04
2023-07-12T06:27:30.090Z,23.06
2023-07-12T06:28:31.615Z,23.07
2023-07-12T06:29:33.081Z,23.13
2023-07-12T06:30:36.670Z,23.04
2023-07-12T06:31:38.396Z,23.10
2023-07-12T06:32:39.896Z,23.14
2023-07-12T06:33:43.388Z,23.21
2023-07-12T06:34:45.006Z,23.08
2023-07-12T06:35:46.649Z,22.97
2023-07-12T06:36:49.578Z,22.92
2023-07-12T06:37:51.053Z,23.06
2023-07-12T06:38:52.634Z,23.24
2023-07-12T06:39:54.118Z,23.23
2023-07-12T06:40:55.581Z,23.17
2023-07-12T06:41:57.765Z,23.04
2023-07-12T06:42:59.456Z,23.19
2023-07-12T06:44:00.936Z,23.24
2023-07-12T06:45:02.665Z,23.35
2023-07-12T06:46:04.923Z,23.36
2023-07-12T06:47:07.486Z,23.27
2023-07-12T06:48:08.951Z,23.29
2023-07-12T06:49:11.908Z,23.26
2023-07-12T06:50:14.257Z,23.33
2023-07-12T06:51:15.922Z,23.51
2023-07-12T06:52:17.432Z,23.60
2023-07-12T06:53:18.928Z,23.44
2023-07-12T06:54:20.369Z,23.54
2023-07-12T06:55:21.877Z,23.62
2023-07-12T06:56:23.344Z,23.72
2023-07-12T06:57:24.926Z,23.80
2023-07-12T06:58:26.393Z,23.79
2023-07-12T06:59:27.887Z,23.81
2023-07-12T07:00:29.321Z,23.79
2023-07-12T07:01:30.864Z,23.76
2023-07-12T07:02:32.441Z,23.78
2023-07-12T07:03:33.981Z,23.87
2023-07-12T07:04:35.459Z,23.91
2023-07-12T07:05:41.720Z,24.09
2023-07-12T07:06:43.746Z,24.17
2023-07-12T07:07:45.223Z,24.30
2023-07-12T07:08:48.595Z,24.41
2023-07-12T07:09:50.107Z,24.51
2023-07-12T07:10:53.932Z,24.66
2023-07-12T07:11:55.477Z,24.71
2023-07-12T07:12:56.964Z,24.86
2023-07-12T07:13:58.478Z,24.96
2023-07-12T07:14:59.906Z,25.06
2023-07-12T07:16:01.494Z,25.22
2023-07-12T07:17:03.276Z,25.28
2023-07-12T07:18:05.069Z,25.42
2023-07-12T07:19:06.868Z,25.42
2023-07-12T07:20:09.011Z,25.40
2023-07-12T07:21:10.953Z,25.43
2023-07-12T07:22:12.569Z,25.60
2023-07-12T07:23:15.036Z,25.56
2023-07-12T07:24:18.179Z,25.64
2023-07-12T07:25:21.429Z,25.92
2023-07-12T07:26:23.867Z,26.09
2023-07-12T07:27:25.647Z,26.20
2023-07-12T07:28:27.639Z,26.30
2023-07-12T07:29:29.435Z,26.25
2023-07-12T07:30:32.309Z,26.38
2023-07-12T07:31:33.957Z,26.47
2023-07-12T07:32:35.773Z,26.55
2023-07-12T07:33:41.811Z,26.67
2023-07-12T07:34:43.702Z,26.72
2023-07-12T07:35:45.191Z,26.73
2023-07-12T07:36:46.654Z,26.75
2023-07-12T07:37:49.736Z,26.71
2023-07-12T07:38:51.194Z,26.78
2023-07-12T07:39:52.744Z,27.05
2023-07-12T07:40:55.274Z,27.23
2023-07-12T07:41:56.728Z,27.11
2023-07-12T07:42:58.222Z,26.77
2023-07-12T07:43:59.789Z,26.76
2023-07-12T07:45:01.240Z,26.80
2023-07-12T07:46:04.142Z,26.71
2023-07-12T07:47:06.043Z,26.49
2023-07-12T07:48:07.566Z,26.35
2023-07-12T07:49:09.025Z,26.30
2023-07-12T07:50:10.622Z,26.45
2023-07-12T07:51:13.296Z,26.49
2023-07-12T07:52:14.758Z,26.51
2023-07-12T07:53:16.347Z,26.64
2023-07-12T07:54:17.833Z,26.72
2023-07-12T07:55:19.270Z,26.81
2023-07-12T07:56:21.278Z,26.84
2023-07-12T07:57:23.709Z,26.97
2023-07-12T07:58:25.191Z,27.02
2023-07-12T07:59:26.634Z,26.98
2023-07-12T08:00:28.093Z,26.97
2023-07-12T08:01:29.586Z,26.96
2023-07-12T08:02:31.062Z,26.92
2023-07-12T08:03:35.694Z,26.80
2023-07-12T08:04:40.765Z,26.90
2023-07-12T08:05:42.226Z,26.51
2023-07-12T08:06:43.742Z,26.25
2023-07-12T08:07:47.683Z,26.14
2023-07-12T08:08:50.044Z,26.13
2023-07-12T08:09:52.038Z,25.90
2023-07-12T08:10:53.513Z,25.94
2023-07-12T08:11:54.984Z,25.74
2023-07-12T08:12:59.040Z,25.84
2023-07-12T08:14:00.793Z,25.94
2023-07-12T08:15:02.280Z,25.77
2023-07-12T08:16:03.794Z,25.67
2023-07-12T08:17:12.115Z,25.52
2023-07-12T08:18:13.682Z,25.52
2023-07-12T08:19:18.434Z,25.42
2023-07-12T08:20:21.254Z,25.42
2023-07-12T08:21:22.722Z,25.62
2023-07-12T08:22:25.477Z,25.74
2023-07-12T08:23:28.819Z,25.92
2023-07-12T08:24:31.503Z,26.16
2023-07-12T08:25:35.735Z,26.11
2023-07-12T08:26:37.485Z,26.08
2023-07-12T08:27:38.954Z,26.21
2023-07-12T08:28:40.413Z,26.48
2023-07-12T08:29:41.888Z,26.56
2023-07-12T08:30:43.809Z,26.68
2023-07-12T08:31:45.364Z,26.87
2023-07-12T08:32:46.903Z,27.16
2023-07-12T08:33:50.637Z,27.36
2023-07-12T08:34:52.487Z,27.75
2023-07-12T08:35:53.941Z,27.85
2023-07-12T08:36:55.556Z,27.77
2023-07-12T08:37:58.200Z,27.86
2023-07-12T08:38:59.838Z,27.97
2023-07-12T08:40:01.781Z,27.89
2023-07-12T08:41:14.456Z,27.91
2023-07-12T08:42:25.267Z,27.81
2023-07-12T08:43:32.729Z,27.84
2023-07-12T08:44:36.707Z,27.91
2023-07-12T08:45:38.206Z,27.83
2023-07-12T08:46:47.040Z,27.71
2023-07-12T08:47:50.260Z,27.45
2023-07-12T08:49:00.415Z,27.59
2023-07-12T08:50:02.111Z,27.17
2023-07-12T08:51:14.665Z,27.26
2023-07-12T08:52:25.891Z,27.00
2023-07-12T08:53:31.101Z,27.04
2023-07-12T08:54:35.951Z,26.65
2023-07-12T08:55:38.387Z,26.72
2023-07-12T08:56:39.883Z,26.66
2023-07-12T08:57:43.246Z,26.89
2023-07-12T08:58:55.427Z,26.75
2023-07-12T09:00:09.165Z,26.98
2023-07-12T09:01:17.079Z,26.91
2023-07-12T09:02:23.981Z,26.81
2023-07-12T09:03:25.506Z,26.75
2023-07-12T09:04:30.374Z,26.96
2023-07-12T09:05:34.045Z,26.91
2023-07-12T09:06:36.639Z,27.03
2023-07-12T09:07:38.932Z,26.84
2023-07-12T09:08:43.722Z,26.94
2023-07-12T09:09:49.413Z,26.92
2023-07-12T09:10:57.227Z,27.05
2023-07-12T09:11:59.202Z,27.05
2023-07-12T09:13:02.809Z,26.90
2023-07-12T09:14:04.310Z,26.96
2023-07-12T09:15:12.390Z,27.20
2023-07-12T09:16:28.729Z,27.05
2023-07-12T09:17:36.238Z,26.90
2023-07-12T09:18:38.845Z,26.85
2023-07-12T09:19:40.409Z,26.70
2023-07-12T09:20:42.289Z,26.67
2023-07-12T09:21:48.899Z,26.90
2023-07-12T09:22:50.844Z,26.91
2023-07-12T09:23:54.407Z,26.97
2023-07-12T09:24:57.423Z,27.00
2023-07-12T09:25:58.888Z,26.94
2023-07-12T09:27:14.490Z,27.02
2023-07-12T09:28:16.309Z,26.93
2023-07-12T09:29:26.018Z,27.02
2023-07-12T09:30:30.973Z,27.16
2023-07-12T09:31:35.767Z,27.12
2023-07-12T09:32:38.070Z,27.20
2023-07-12T09:33:39.587Z,27.08
2023-07-12T09:34:41.680Z,27.03
2023-07-12T09:35:48.324Z,27.24
2023-07-12T09:37:00.918Z,27.27
2023-07-12T09:38:05.891Z,27.13
2023-07-12T09:39:11.117Z,27.23
2023-07-12T09:40:17.674Z,27.30
2023-07-12T09:41:24.254Z,27.37
2023-07-12T09:42:27.475Z,27.41
2023-07-12T09:43:29.037Z,27.31
2023-07-12T09:44:31.447Z,27.11
2023-07-12T09:45:36.730Z,26.99
2023-07-12T09:46:40.054Z,27.05
2023-07-12T09:47:59.618Z,27.04
2023-07-12T09:49:09.934Z,26.95
2023-07-12T09:50:27.588Z,27.12
2023-07-12T09:52:01.258Z,27.26
2023-07-12T09:53:10.781Z,27.24
2023-07-12T09:54:29.059Z,27.38
2023-07-12T09:55:37.042Z,27.49
2023-07-12T09:56:56.242Z,27.43
2023-07-12T09:58:16.018Z,27.48
2023-07-12T09:59:30.382Z,27.65
2023-07-12T10:00:51.279Z,27.67
2023-07-12T10:02:22.617Z,27.77
2023-07-12T10:03:27.799Z,27.66
2023-07-12T10:04:53.501Z,27.74
2023-07-12T10:06:03.903Z,27.89
2023-07-12T10:07:34.198Z,27.92
2023-07-12T10:08:47.604Z,27.81
2023-07-12T10:09:50.601Z,27.66
2023-07-12T10:11:39.144Z,27.61
2023-07-12T10:12:47.233Z,27.75
2023-07-12T10:13:52.764Z,27.88
2023-07-12T10:14:55.827Z,27.98
2023-07-12T10:15:59.457Z,27.99
2023-07-12T10:17:02.786Z,28.17
2023-07-12T10:18:05.858Z,28.23
2023-07-12T10:19:17.444Z,28.21
2023-07-12T10:20:23.915Z,28.31
2023-07-12T10:21:27.350Z,28.46
2023-07-12T10:22:41.189Z,28.35
2023-07-12T10:23:56.481Z,28.44
2023-07-12T10:25:01.335Z,28.50
2023-07-12T10:26:06.723Z,28.70
2023-07-12T10:27:32.986Z,28.65
2023-07-12T10:28:43.488Z,28.50
2023-07-12T10:29:54.919Z,28.52
2023-07-12T10:30:59.976Z,28.60
2023-07-12T10:32:06.143Z,28.78
2023-07-12T10:33:30.618Z,28.69
2023-07-12T10:34:58.158Z,28.64
2023-07-12T10:36:05.709Z,28.68
2023-07-12T10:37:15.445Z,28.86
2023-07-12T10:38:22.205Z,28.64
2023-07-12T10:39:30.912Z,28.45
2023-07-12T10:40:38.286Z,28.48
2023-07-12T10:41:47.241Z,28.71
2023-07-12T10:42:55.804Z,28.79
2023-07-12T10:44:06.492Z,28.58
2023-07-12T10:45:17.051Z,28.35
2023-07-12T10:46:36.179Z,28.40
2023-07-12T10:47:43.116Z,28.61
2023-07-12T10:48:50.225Z,28.87
2023-07-12T10:49:53.735Z,28.80
2023-07-12T10:51:12.800Z,28.87
2023-07-12T10:52:25.454Z,28.56
2023-07-12T10:53:36.240Z,28.75
2023-07-12T10:54:38.006Z,28.94
2023-07-12T10:55:44.073Z,28.96
2023-07-12T10:56:56.741Z,29.08
2023-07-12T10:58:16.198Z,28.96
2023-07-12T10:59:31.840Z,28.98
2023-07-12T11:00:50.580Z,29.08
2023-07-12T11:01:54.734Z,29.19
2023-07-12T11:03:16.396Z,29.01
2023-07-12T11:04:28.403Z,29.22
2023-07-12T11:05:39.072Z,29.04
2023-07-12T11:07:05.542Z,28.99
2023-07-12T11:08:32.881Z,28.95
2023-07-12T11:09:46.204Z,28.79
2023-07-12T11:10:48.198Z,28.89
2023-07-12T11:11:59.735Z,28.88
2023-07-12T11:13:15.491Z,29.33
2023-07-12T11:14:40.408Z,29.54
2023-07-12T11:15:58.912Z,29.61
2023-07-12T11:17:12.511Z,29.66
2023-07-12T11:18:26.205Z,29.36
2023-07-12T11:19:43.956Z,29.26
2023-07-12T11:21:25.945Z,29.36
2023-07-12T11:22:53.333Z,29.14
2023-07-12T11:23:54.851Z,28.94
2023-07-12T11:25:07.449Z,28.97
2023-07-12T11:26:30.598Z,29.14
2023-07-12T11:27:51.972Z,29.29
2023-07-12T11:28:54.494Z,29.23
2023-07-12T11:29:57.525Z,29.26
2023-07-12T11:31:26.856Z,29.31
2023-07-12T11:32:34.071Z,29.30
2023-07-12T11:33:36.480Z,29.21
2023-07-12T11:34:41.629Z,29.18
2023-07-12T11:35:48.307Z,29.16
2023-07-12T11:36:55.681Z,29.47
2023-07-12T11:37:59.972Z,29.28
2023-07-12T11:39:02.437Z,29.14
2023-07-12T11:40:24.894Z,29.17
2023-07-12T11:41:29.244Z,29.20
2023-07-12T11:42:32.162Z,29.18
2023-07-12T11:43:36.976Z,29.25
2023-07-12T11:44:38.430Z,29.17
2023-07-12T11:45:40.523Z,29.30
2023-07-12T11:46:43.291Z,29.15
2023-07-12T11:47:47.872Z,29.11
2023-07-12T11:48:52.113Z,29.29
2023-07-12T11:49:59.190Z,29.22
2023-07-12T11:51:09.960Z,29.15
2023-07-12T11:52:16.826Z,29.18
2023-07-12T11:53:19.896Z,29.25
2023-07-12T11:54:35.614Z,29.22
2023-07-12T11:55:37.248Z,29.32
2023-07-12T11:56:42.361Z,29.31
2023-07-12T11:57:45.415Z,29.26
2023-07-12T11:58:47.214Z,29.30
2023-07-12T11:59:51.658Z,29.37
2023-07-12T12:00:56.182Z,29.43
2023-07-12T12:01:58.043Z,29.59
2023-07-12T12:03:00.562Z,29.75
2023-07-12T12:04:06.654Z,29.85
2023-07-12T12:05:26.092Z,29.81
2023-07-12T12:06:27.612Z,29.84
2023-07-12T12:07:40.332Z,29.81
2023-07-12T12:08:55.637Z,29.69
2023-07-12T12:09:59.089Z,29.70
2023-07-12T12:11:00.557Z,29.88
2023-07-12T12:12:03.831Z,30.00
2023-07-12T12:13:24.472Z,29.99
2023-07-12T12:14:30.145Z,30.00
2023-07-12T12:15:31.764Z,30.15
2023-07-12T12:16:33.294Z,30.28
2023-07-12T12:17:38.007Z,29.87
2023-07-12T12:18:51.837Z,29.30
2023-07-12T12:20:27.353Z,29.38
2023-07-12T12:21:29.438Z,29.32
2023-07-12T12:22:31.331Z,29.37
2023-07-12T12:23:49.025Z,29.39
2023-07-12T12:24:55.230Z,29.71
2023-07-12T12:26:01.479Z,29.70
2023-07-12T12:27:15.452Z,29.94
2023-07-12T12:28:27.562Z,30.01
2023-07-12T12:29:29.356Z,29.84
2023-07-12T12:30:32.111Z,29.92
2023-07-12T12:31:48.713Z,29.90
2023-07-12T12:33:24.638Z,29.97
2023-07-12T12:34:31.999Z,29.99
2023-07-12T12:35:47.577Z,29.96
2023-07-12T12:37:07.482Z,30.13
2023-07-12T12:38:26.290Z,30.25
2023-07-12T12:39:29.003Z,30.42
2023-07-12T12:40:30.351Z,30.54
2023-07-12T12:41:38.412Z,30.71
2023-07-12T12:43:03.179Z,30.77
2023-07-12T12:44:12.264Z,30.76
2023-07-12T12:45:13.772Z,30.71
2023-07-12T12:47:22.257Z,30.72
2023-07-12T12:53:54.525Z,31.20
2023-07-12T12:55:10.518Z,31.34
2023-07-12T13:01:14.537Z,31.41
2023-07-12T13:01:44.379Z,31.53
2023-07-12T13:04:29.868Z,31.62
2023-07-12T13:04:57.560Z,31.66
2023-07-12T13:06:04.100Z,31.64
2023-07-12T13:07:37.390Z,31.45
2023-07-12T13:16:21.479Z,30.31
2023-07-12T13:17:49.293Z,29.88
2023-07-12T13:17:51.394Z,29.94
2023-07-12T13:19:02.590Z,29.89
2023-07-12T13:19:50.199Z,30.04
2023-07-12T13:20:54.031Z,30.22
2023-07-12T13:21:56.035Z,30.25
2023-07-12T13:22:59.154Z,30.14
2023-07-12T13:24:00.708Z,30.28
2023-07-12T13:25:02.166Z,30.36
2023-07-12T13:26:03.626Z,30.40
2023-07-12T13:27:20.040Z,30.38
2023-07-12T13:28:22.617Z,30.51
2023-07-12T13:29:24.488Z,30.52
2023-07-12T13:30:29.608Z,30.66
2023-07-12T13:31:31.107Z,30.73
2023-07-12T13:32:32.681Z,30.63
2023-07-12T13:33:34.198Z,30.43
2023-07-12T13:36:46.694Z,30.60
2023-07-12T13:37:52.064Z,30.77
2023-07-12T13:40:04.729Z,30.91
2023-07-12T13:45:26.375Z,31.35
2023-07-12T13:46:28.052Z,31.62
2023-07-12T13:47:30.427Z,31.84
2023-07-12T13:48:31.930Z,32.11
2023-07-12T13:49:33.389Z,32.22
2023-07-12T13:50:34.817Z,32.20
2023-07-12T13:51:36.447Z,32.07
2023-07-12T13:52:37.905Z,32.13
2023-07-12T13:53:39.378Z,31.91
2023-07-12T13:54:41.197Z,32.00
2023-07-12T13:55:44.977Z,32.13
2023-07-12T13:56:48.747Z,32.17
2023-07-12T13:57:50.395Z,32.00
2023-07-12T14:01:24.482Z,31.30
2023-07-12T14:03:42.795Z,31.46
2023-07-12T14:04:52.724Z,31.62
2023-07-12T14:05:57.816Z,31.79
2023-07-12T14:07:02.163Z,31.63
2023-07-12T14:09:21.084Z,31.71
2023-07-12T14:10:26.172Z,31.99
2023-07-12T14:11:33.600Z,32.09
2023-07-12T14:12:35.098Z,31.88
2023-07-12T14:13:36.617Z,31.63
2023-07-12T14:14:38.108Z,31.77
2023-07-12T14:15:39.730Z,32.17
2023-07-12T14:16:41.349Z,32.30
2023-07-12T14:17:42.844Z,32.31
2023-07-12T14:18:44.459Z,32.36
2023-07-12T14:19:48.002Z,32.08
2023-07-12T14:20:50.501Z,32.30
2023-07-12T14:21:52.102Z,32.42
2023-07-12T14:22:54.987Z,32.43
2023-07-12T14:23:57.132Z,32.34
2023-07-12T14:24:59.968Z,32.24
2023-07-12T14:26:01.537Z,32.40
2023-07-12T14:27:04.003Z,32.27